createdAt,value
2018-08-30T00:00:20.796Z,101295.91
2018-08-30T00:01:24.967Z,101299.58
2018-08-30T00:02:29.141Z,101303.24
2018-08-30T00:03:33.307Z,101298.05
2018-08-30T00:04:37.523Z,101310.61
2018-08-30T00:05:42.239Z,101305.91
2018-08-30T00:06:46.431Z,101306.89
2018-08-30T00:07:50.648Z,101316.59
2018-08-30T00:08:54.789Z,101314.53
2018-08-30T00:09:58.939Z,101317.88
2018-08-30T00:11:03.098Z,101314.16
2018-08-30T00:12:07.536Z,101323.13
2018-08-30T00:13:11.719Z,101320.63
2018-08-30T00:14:15.966Z,101323.96
2018-08-30T00:15:20.115Z,101323.74
2018-08-30T00:16:24.377Z,101322.40
2018-08-30T00:17:28.497Z,101319.89
2018-08-30T00:18:32.696Z,101325.57
2018-08-30T00:19:36.898Z,101329.10
2018-08-30T00:20:41.323Z,101325.93
2018-08-30T00:21:45.497Z,101324.28
2018-08-30T00:22:49.727Z,101329.51
2018-08-30T00:23:53.893Z,101334.57
2018-08-30T00:24:58.256Z,101332.57
2018-08-30T00:26:02.620Z,101336.59
2018-08-30T00:27:07.066Z,101339.27
2018-08-30T00:28:11.270Z,101340.61
2018-08-30T00:29:15.443Z,101336.59
2018-08-30T00:30:19.677Z,101344.64
2018-08-30T00:31:23.834Z,101343.30
2018-08-30T00:32:28.115Z,101342.67
2018-08-30T00:33:32.285Z,101348.22
2018-08-30T00:34:36.471Z,101346.22
2018-08-30T00:35:41.648Z,101348.41
2018-08-30T00:36:45.816Z,101354.97
2018-08-30T00:37:50.132Z,101353.47
2018-08-30T00:38:54.305Z,101353.33
2018-08-30T00:39:58.507Z,101354.18
2018-08-30T00:41:02.659Z,101353.16
2018-08-30T00:42:06.859Z,101356.03
2018-08-30T00:43:11.085Z,101357.23
2018-08-30T00:44:15.231Z,101358.09
2018-08-30T00:45:19.691Z,101358.44
2018-08-30T00:46:23.846Z,101364.63
2018-08-30T00:47:28.059Z,101358.14
2018-08-30T00:48:32.318Z,101357.97
2018-08-30T00:49:36.628Z,101362.70
2018-08-30T00:50:41.019Z,101361.69
2018-08-30T00:51:45.209Z,101367.41
2018-08-30T00:52:49.399Z,101362.40
2018-08-30T00:53:53.620Z,101368.09
2018-08-30T00:54:58.007Z,101363.43
2018-08-30T00:56:02.183Z,101362.94
2018-08-30T00:57:06.439Z,101362.41
2018-08-30T00:58:10.613Z,101368.63
2018-08-30T00:59:14.750Z,101364.77
2018-08-30T01:00:18.984Z,101367.95
2018-08-30T01:01:23.226Z,101366.25
2018-08-30T01:02:27.422Z,101368.09
2018-08-30T01:03:31.591Z,101369.29
2018-08-30T01:04:35.762Z,101365.09
2018-08-30T01:05:39.918Z,101374.48
2018-08-30T01:06:44.144Z,101370.81
2018-08-30T01:07:51.312Z,101371.17
2018-08-30T01:08:55.555Z,101373.36
2018-08-30T01:09:59.714Z,101368.49
2018-08-30T01:11:03.997Z,101375.87
2018-08-30T01:12:08.166Z,101375.03
2018-08-30T01:13:12.589Z,101377.03
2018-08-30T01:14:16.749Z,101375.20
2018-08-30T01:15:21.571Z,101378.73
2018-08-30T01:16:25.736Z,101384.77
2018-08-30T01:17:30.031Z,101384.64
2018-08-30T01:18:34.208Z,101384.64
2018-08-30T01:19:38.432Z,101393.02
2018-08-30T01:20:42.600Z,101391.17
2018-08-30T01:21:46.783Z,101395.69
2018-08-30T01:22:51.049Z,101396.89
2018-08-30T01:23:55.215Z,101389.17
2018-08-30T01:24:59.403Z,101392.70
2018-08-30T01:26:03.582Z,101393.42
2018-08-30T01:27:14.395Z,101396.78
2018-08-30T01:28:18.573Z,101398.48
2018-08-30T01:29:22.743Z,101394.77
2018-08-30T01:30:26.923Z,101399.16
2018-08-30T01:31:31.142Z,101400.36
2018-08-30T01:32:35.613Z,101399.83
2018-08-30T01:33:39.876Z,101404.88
2018-08-30T01:34:44.049Z,101398.80
2018-08-30T01:35:48.270Z,101405.51
2018-08-30T01:36:52.419Z,101406.85
2018-08-30T01:37:56.584Z,101406.85
2018-08-30T01:39:00.771Z,101406.85
2018-08-30T01:40:05.192Z,101406.36
2018-08-30T01:41:09.334Z,101407.70
2018-08-30T01:42:13.672Z,101408.19
2018-08-30T01:43:17.845Z,101407.20
2018-08-30T01:44:22.032Z,101404.88
2018-08-30T01:45:26.187Z,101403.53
2018-08-30T01:46:30.628Z,101405.20
2018-08-30T01:47:34.794Z,101402.52
2018-08-30T01:48:38.945Z,101401.70
2018-08-30T01:49:43.346Z,101404.03
2018-08-30T01:50:47.502Z,101415.25
2018-08-30T01:51:51.735Z,101409.53
2018-08-30T01:52:55.910Z,101407.38
2018-08-30T01:54:00.112Z,101414.08
2018-08-30T01:55:04.534Z,101415.06
2018-08-30T01:56:08.707Z,101416.59
2018-08-30T01:57:13.141Z,101419.28
2018-08-30T01:58:17.312Z,101416.23
2018-08-30T01:59:21.488Z,101410.38
2018-08-30T02:00:25.704Z,101414.77
2018-08-30T02:01:29.837Z,101416.23
2018-08-30T02:02:34.005Z,101413.56
2018-08-30T02:03:38.172Z,101414.08
2018-08-30T02:04:42.482Z,101418.59
2018-08-30T02:05:46.687Z,101417.26
2018-08-30T02:06:50.867Z,101420.93
2018-08-30T02:07:55.168Z,101417.26
2018-08-30T02:08:59.564Z,101416.22
2018-08-30T02:10:03.786Z,101419.89
2018-08-30T02:11:07.977Z,101420.88
2018-08-30T02:12:12.333Z,101417.87
2018-08-30T02:13:16.506Z,101416.53
2018-08-30T02:14:20.799Z,101418.19
2018-08-30T02:15:25.109Z,101416.36
2018-08-30T02:16:29.498Z,101421.23
2018-08-30T02:17:33.707Z,101421.42
2018-08-30T02:18:37.870Z,101415.20
2018-08-30T02:19:42.018Z,101416.05
2018-08-30T02:20:46.183Z,101420.93
2018-08-30T02:21:50.375Z,101417.26
2018-08-30T02:22:54.506Z,101422.45
2018-08-30T02:23:58.655Z,101422.64
2018-08-30T02:25:02.839Z,101422.50
2018-08-30T02:26:07.185Z,101422.86
2018-08-30T02:27:11.381Z,101417.69
2018-08-30T02:28:15.518Z,101420.86
2018-08-30T02:29:19.976Z,101421.22
2018-08-30T02:30:24.145Z,101421.53
2018-08-30T02:31:28.347Z,101429.59
2018-08-30T02:32:32.523Z,101427.08
2018-08-30T02:33:36.749Z,101425.73
2018-08-30T02:34:40.920Z,101420.86
2018-08-30T02:35:45.096Z,101426.58
2018-08-30T02:36:49.294Z,101428.41
2018-08-30T02:37:53.499Z,101423.05
2018-08-30T02:38:57.894Z,101429.08
2018-08-30T02:40:02.091Z,101427.73
2018-08-30T02:41:06.379Z,101425.73
2018-08-30T02:42:10.561Z,101429.76
2018-08-30T02:43:14.730Z,101434.63
2018-08-30T02:44:19.142Z,101436.83
2018-08-30T02:45:23.499Z,101435.48
2018-08-30T02:46:27.655Z,101427.92
2018-08-30T02:47:31.980Z,101435.97
2018-08-30T02:48:36.171Z,101437.13
2018-08-30T02:49:40.371Z,101436.42
2018-08-30T02:50:44.694Z,101433.37
2018-08-30T02:51:48.894Z,101432.20
2018-08-30T02:52:53.423Z,101433.19
2018-08-30T02:53:57.644Z,101434.04
2018-08-30T02:55:01.888Z,101435.02
2018-08-30T02:56:06.359Z,101439.41
2018-08-30T02:57:10.541Z,101438.06
2018-08-30T02:58:14.718Z,101440.92
2018-08-30T02:59:18.879Z,101440.39
2018-08-30T03:00:23.824Z,101447.45
2018-08-30T03:01:28.122Z,101443.08
2018-08-30T03:02:34.027Z,101442.75
2018-08-30T03:03:38.235Z,101449.46
2018-08-30T03:04:42.443Z,101446.06
2018-08-30T03:05:46.771Z,101452.28
2018-08-30T03:06:50.927Z,101451.23
2018-08-30T03:07:55.072Z,101453.92
2018-08-30T03:08:59.260Z,101456.42
2018-08-30T03:10:03.471Z,101451.05
2018-08-30T03:11:07.916Z,101456.42
2018-08-30T03:12:12.074Z,101458.06
2018-08-30T03:13:16.283Z,101454.66
2018-08-30T03:14:20.444Z,101456.00
2018-08-30T03:15:24.670Z,101456.53
2018-08-30T03:16:28.835Z,101461.37
2018-08-30T03:17:33.080Z,101458.36
2018-08-30T03:18:37.287Z,101461.37
2018-08-30T03:19:41.522Z,101462.71
2018-08-30T03:20:45.729Z,101459.70
2018-08-30T03:21:49.893Z,101462.88
2018-08-30T03:22:54.124Z,101461.67
2018-08-30T03:23:58.287Z,101464.36
2018-08-30T03:25:02.679Z,101464.36
2018-08-30T03:26:07.429Z,101463.67
2018-08-30T03:27:11.570Z,101459.30
2018-08-30T03:28:15.780Z,101469.53
2018-08-30T03:29:20.053Z,101464.52
2018-08-30T03:30:24.330Z,101472.41
2018-08-30T03:31:28.413Z,101464.52
2018-08-30T03:32:32.579Z,101464.88
2018-08-30T03:33:36.714Z,101469.72
2018-08-30T03:34:40.977Z,101468.38
2018-08-30T03:35:45.356Z,101467.56
2018-08-30T03:36:49.735Z,101468.91
2018-08-30T03:37:53.888Z,101468.38
2018-08-30T03:38:58.104Z,101464.88
2018-08-30T03:40:02.285Z,101469.72
2018-08-30T03:41:06.747Z,101470.08
2018-08-30T03:42:11.130Z,101471.42
2018-08-30T03:43:15.263Z,101469.09
2018-08-30T03:44:19.443Z,101467.39
2018-08-30T03:45:23.678Z,101468.73
2018-08-30T03:46:27.996Z,101470.76
2018-08-30T03:47:32.797Z,101472.95
2018-08-30T03:48:36.962Z,101478.31
2018-08-30T03:49:41.555Z,101468.44
2018-08-30T03:50:45.844Z,101469.28
2018-08-30T03:51:50.004Z,101478.19
2018-08-30T03:52:54.295Z,101471.48
2018-08-30T03:53:58.511Z,101476.84
2018-08-30T03:55:02.955Z,101478.19
2018-08-30T03:56:07.331Z,101477.98
2018-08-30T03:57:11.491Z,101477.14
2018-08-30T03:58:15.720Z,101481.17
2018-08-30T03:59:19.891Z,101482.50
2018-08-30T04:00:24.134Z,101486.53
2018-08-30T04:01:28.327Z,101484.83
2018-08-30T04:02:32.531Z,101490.20
2018-08-30T04:03:36.731Z,101488.86
2018-08-30T04:04:40.974Z,101487.16
2018-08-30T04:05:45.130Z,101490.00
2018-08-30T04:06:49.330Z,101491.84
2018-08-30T04:07:53.588Z,101497.70
2018-08-30T04:08:57.800Z,101498.68
2018-08-30T04:10:02.103Z,101497.70
2018-08-30T04:11:06.477Z,101498.19
2018-08-30T04:12:10.661Z,101496.22
2018-08-30T04:13:14.925Z,101502.44
2018-08-30T04:14:19.216Z,101500.57
2018-08-30T04:15:23.408Z,101503.25
2018-08-30T04:16:27.583Z,101502.44
2018-08-30T04:17:31.746Z,101506.95
2018-08-30T04:18:35.945Z,101504.27
2018-08-30T04:19:40.166Z,101508.62
2018-08-30T04:20:44.357Z,101505.61
2018-08-30T04:21:48.510Z,101513.98
2018-08-30T04:22:52.699Z,101510.32
2018-08-30T04:23:56.907Z,101517.87
2018-08-30T04:25:01.107Z,101512.15
2018-08-30T04:26:05.748Z,101516.34
2018-08-30T04:27:09.945Z,101512.94
2018-08-30T04:28:14.112Z,101517.33
2018-08-30T04:29:18.284Z,101514.28
2018-08-30T04:30:22.511Z,101517.33
2018-08-30T04:31:27.125Z,101520.14
2018-08-30T04:32:31.270Z,101512.94
2018-08-30T04:33:35.655Z,101518.30
2018-08-30T04:34:39.967Z,101516.97
2018-08-30T04:35:44.390Z,101520.50
2018-08-30T04:36:48.569Z,101514.64
2018-08-30T04:37:52.770Z,101509.63
2018-08-30T04:38:57.864Z,101516.37
2018-08-30T04:40:02.088Z,101514.53
2018-08-30T04:41:06.536Z,101515.08
2018-08-30T04:42:10.986Z,101511.77
2018-08-30T04:43:15.260Z,101515.99
2018-08-30T04:44:19.448Z,101513.14
2018-08-30T04:45:23.687Z,101513.37
2018-08-30T04:46:27.903Z,101515.52
2018-08-30T04:47:32.124Z,101517.09
2018-08-30T04:48:36.845Z,101520.09
2018-08-30T04:49:41.140Z,101521.61
2018-08-30T04:50:45.320Z,101519.91
2018-08-30T04:51:49.510Z,101522.59
2018-08-30T04:52:53.702Z,101529.79
2018-08-30T04:53:58.022Z,101523.44
2018-08-30T04:55:02.448Z,101526.13
2018-08-30T04:56:06.893Z,101532.34
2018-08-30T04:57:11.105Z,101523.08
2018-08-30T04:58:15.295Z,101532.64
2018-08-30T04:59:19.477Z,101532.41
2018-08-30T05:00:23.681Z,101532.09
2018-08-30T05:01:27.839Z,101525.52
2018-08-30T05:02:32.049Z,101533.08
2018-08-30T05:03:36.231Z,101533.92
2018-08-30T05:04:40.448Z,101531.60
2018-08-30T05:05:44.658Z,101533.92
2018-08-30T05:06:48.838Z,101540.63
2018-08-30T05:07:53.067Z,101537.10
2018-08-30T05:08:57.216Z,101550.52
2018-08-30T05:10:01.563Z,101541.97
2018-08-30T05:11:05.719Z,101543.67
2018-08-30T05:12:09.888Z,101548.02
2018-08-30T05:13:14.197Z,101550.02
2018-08-30T05:14:18.357Z,101547.47
2018-08-30T05:15:22.587Z,101548.00
2018-08-30T05:16:26.800Z,101550.69
2018-08-30T05:17:30.930Z,101548.48
2018-08-30T05:18:35.146Z,101550.69
2018-08-30T05:19:39.427Z,101549.17
2018-08-30T05:20:43.570Z,101553.55
2018-08-30T05:21:47.725Z,101554.73
2018-08-30T05:22:51.982Z,101552.05
2018-08-30T05:23:56.350Z,101550.94
2018-08-30T05:25:00.726Z,101554.44
2018-08-30T05:26:04.965Z,101551.62
2018-08-30T05:27:09.118Z,101553.45
2018-08-30T05:28:13.297Z,101557.84
2018-08-30T05:29:19.302Z,101554.30
2018-08-30T05:30:23.547Z,101556.80
2018-08-30T05:31:27.723Z,101556.44
2018-08-30T05:32:32.141Z,101557.77
2018-08-30T05:33:36.299Z,101556.08
2018-08-30T05:34:40.529Z,101556.08
2018-08-30T05:35:44.766Z,101558.76
2018-08-30T05:36:48.930Z,101557.41
2018-08-30T05:37:53.121Z,101565.14
2018-08-30T05:39:04.367Z,101564.12
2018-08-30T05:40:08.579Z,101572.34
2018-08-30T05:41:12.783Z,101565.95
2018-08-30T05:42:16.963Z,101576.20
2018-08-30T05:43:21.361Z,101576.56
2018-08-30T05:44:25.872Z,101578.26
2018-08-30T05:45:30.067Z,101576.92
2018-08-30T05:46:34.283Z,101579.92
2018-08-30T05:47:38.467Z,101580.64
2018-08-30T05:48:42.628Z,101575.28
2018-08-30T05:49:46.798Z,101583.03
2018-08-30T05:50:51.188Z,101574.12
2018-08-30T05:51:55.396Z,101580.70
2018-08-30T05:52:59.562Z,101579.36
2018-08-30T05:54:03.743Z,101580.90
2018-08-30T05:55:07.939Z,101579.39
2018-08-30T05:56:12.324Z,101579.75
2018-08-30T05:57:16.541Z,101580.11
2018-08-30T05:58:20.751Z,101583.12
2018-08-30T05:59:25.362Z,101588.16
2018-08-30T06:00:29.564Z,101586.59
2018-08-30T06:01:33.832Z,101588.45
2018-08-30T06:02:37.999Z,101588.09
2018-08-30T06:03:42.180Z,101593.47
2018-08-30T06:04:46.344Z,101590.30
2018-08-30T06:05:50.639Z,101593.17
2018-08-30T06:06:54.837Z,101594.87
2018-08-30T06:07:59.021Z,101586.16
2018-08-30T06:09:03.275Z,101586.52
2018-08-30T06:10:07.497Z,101591.95
2018-08-30T06:11:11.679Z,101590.80
2018-08-30T06:12:15.867Z,101594.66
2018-08-30T06:13:20.048Z,101600.38
2018-08-30T06:14:24.299Z,101595.50
2018-08-30T06:15:28.610Z,101600.74
2018-08-30T06:16:34.142Z,101602.94
2018-08-30T06:17:39.254Z,101597.56
2018-08-30T06:18:43.972Z,101596.36
2018-08-30T06:19:48.431Z,101603.42
2018-08-30T06:20:52.806Z,101602.27
2018-08-30T06:21:58.091Z,101611.18
2018-08-30T06:23:02.696Z,101606.80
2018-08-30T06:24:07.781Z,101614.36
2018-08-30T06:25:12.003Z,101607.16
2018-08-30T06:26:16.918Z,101615.53
2018-08-30T06:27:22.224Z,101619.23
2018-08-30T06:28:27.599Z,101614.84
2018-08-30T06:29:33.548Z,101616.19
2018-08-30T06:30:38.761Z,101622.91
2018-08-30T06:31:43.038Z,101619.73
2018-08-30T06:32:47.306Z,101614.84
2018-08-30T06:33:51.652Z,101621.92
2018-08-30T06:34:56.012Z,101621.06
2018-08-30T06:36:01.867Z,101624.92
2018-08-30T06:37:08.592Z,101619.95
2018-08-30T06:38:12.931Z,101624.03
2018-08-30T06:39:17.595Z,101627.57
2018-08-30T06:40:22.130Z,101631.43
2018-08-30T06:41:26.870Z,101629.79
2018-08-30T06:42:32.180Z,101630.02
2018-08-30T06:43:37.331Z,101628.50
2018-08-30T06:44:41.841Z,101624.83
2018-08-30T06:45:48.984Z,101626.53
2018-08-30T06:46:54.262Z,101628.92
2018-08-30T06:47:58.495Z,101631.44
2018-08-30T06:49:02.810Z,101634.84
2018-08-30T06:50:07.933Z,101631.13
2018-08-30T06:51:13.960Z,101638.87
2018-08-30T06:52:18.262Z,101637.00
2018-08-30T06:53:22.496Z,101638.34
2018-08-30T06:54:26.803Z,101638.34
2018-08-30T06:55:31.415Z,101636.18
2018-08-30T06:56:35.827Z,101640.40
2018-08-30T06:57:41.144Z,101644.42
2018-08-30T06:58:45.652Z,101641.08
2018-08-30T06:59:50.134Z,101637.91
2018-08-30T07:00:54.736Z,101645.16
2018-08-30T07:02:00.181Z,101646.34
2018-08-30T07:03:05.474Z,101643.52
2018-08-30T07:04:11.488Z,101642.17
2018-08-30T07:05:16.157Z,101648.05
2018-08-30T07:06:20.727Z,101647.36
2018-08-30T07:07:25.281Z,101651.52
2018-08-30T07:08:29.931Z,101653.88
2018-08-30T07:09:34.562Z,101657.75
2018-08-30T07:10:39.757Z,101658.11
2018-08-30T07:11:44.708Z,101652.56
2018-08-30T07:12:49.134Z,101656.10
2018-08-30T07:13:53.884Z,101657.14
2018-08-30T07:14:58.592Z,101657.33
2018-08-30T07:16:03.554Z,101655.00
2018-08-30T07:17:08.498Z,101655.36
2018-08-30T07:18:13.760Z,101660.08
2018-08-30T07:19:19.012Z,101658.92
2018-08-30T07:20:23.940Z,101653.59
2018-08-30T07:21:28.129Z,101655.48
2018-08-30T07:22:32.327Z,101661.90
2018-08-30T07:23:37.808Z,101659.40
2018-08-30T07:24:42.597Z,101663.48
2018-08-30T07:25:46.889Z,101660.66
2018-08-30T07:26:52.368Z,101659.14
2018-08-30T07:27:58.064Z,101658.34
2018-08-30T07:29:03.458Z,101661.39
2018-08-30T07:30:11.885Z,101660.53
2018-08-30T07:31:17.355Z,101662.73
2018-08-30T07:32:23.886Z,101662.88
2018-08-30T07:33:30.241Z,101661.34
2018-08-30T07:34:34.479Z,101666.36
2018-08-30T07:35:38.721Z,101666.36
2018-08-30T07:36:42.908Z,101672.09
2018-08-30T07:37:47.112Z,101669.76
2018-08-30T07:38:51.273Z,101670.44
2018-08-30T07:39:55.452Z,101678.69
2018-08-30T07:40:59.632Z,101674.52
2018-08-30T07:42:03.829Z,101667.80
2018-08-30T07:43:07.995Z,101672.82
2018-08-30T07:44:12.777Z,101677.56
2018-08-30T07:45:17.163Z,101674.52
2018-08-30T07:46:21.303Z,101678.91
2018-08-30T07:47:25.492Z,101676.91
2018-08-30T07:48:29.653Z,101681.13
2018-08-30T07:49:33.828Z,101686.55
2018-08-30T07:50:38.025Z,101688.44
2018-08-30T07:51:42.211Z,101688.13
2018-08-30T07:52:46.379Z,101683.46
2018-08-30T07:53:50.720Z,101687.85
2018-08-30T07:54:55.215Z,101691.88
2018-08-30T07:55:59.347Z,101686.02
2018-08-30T07:57:03.802Z,101689.69
2018-08-30T07:58:08.036Z,101686.92
2018-08-30T07:59:12.241Z,101698.34
2018-08-30T08:00:17.560Z,101695.11
2018-08-30T08:01:21.743Z,101698.95
2018-08-30T08:02:25.920Z,101701.09
2018-08-30T08:03:30.115Z,101697.37
2018-08-30T08:04:34.311Z,101699.38
2018-08-30T08:05:38.551Z,101703.67
2018-08-30T08:06:42.800Z,101705.69
2018-08-30T08:07:47.113Z,101701.11
2018-08-30T08:08:51.327Z,101699.94
2018-08-30T08:09:55.524Z,101703.97
2018-08-30T08:10:59.736Z,101701.27
2018-08-30T08:12:04.141Z,101707.34
2018-08-30T08:13:08.340Z,101702.81
2018-08-30T08:14:12.544Z,101706.05
2018-08-30T08:15:16.783Z,101707.44
2018-08-30T08:16:21.212Z,101705.48
2018-08-30T08:17:25.466Z,101702.86
2018-08-30T08:18:29.802Z,101711.39
2018-08-30T08:19:34.247Z,101709.45
2018-08-30T08:20:38.800Z,101708.48
2018-08-30T08:21:43.003Z,101702.48
2018-08-30T08:22:47.309Z,101705.22
2018-08-30T08:23:51.448Z,101704.59
2018-08-30T08:24:55.626Z,101702.09
2018-08-30T08:25:59.830Z,101712.05
2018-08-30T08:27:04.136Z,101703.83
2018-08-30T08:28:09.024Z,101703.97
2018-08-30T08:29:13.211Z,101707.33
2018-08-30T08:30:17.414Z,101707.64
2018-08-30T08:31:21.615Z,101707.95
2018-08-30T08:32:25.830Z,101705.08
2018-08-30T08:33:30.107Z,101710.41
2018-08-30T08:34:34.396Z,101714.09
2018-08-30T08:35:38.693Z,101713.91
2018-08-30T08:36:42.897Z,101715.56
2018-08-30T08:37:47.115Z,101714.17
2018-08-30T08:38:51.294Z,101718.02
2018-08-30T08:39:55.515Z,101715.47
2018-08-30T08:41:00.074Z,101711.61
2018-08-30T08:42:04.300Z,101722.55
2018-08-30T08:43:08.630Z,101717.17
2018-08-30T08:44:12.802Z,101717.71
2018-08-30T08:45:17.059Z,101722.28
2018-08-30T08:46:21.259Z,101728.03
2018-08-30T08:47:25.420Z,101729.42
2018-08-30T08:48:29.663Z,101729.12
2018-08-30T08:49:33.903Z,101731.00
2018-08-30T08:50:38.090Z,101732.89
2018-08-30T08:51:42.299Z,101730.88
2018-08-30T08:52:46.523Z,101734.10
2018-08-30T08:53:50.868Z,101732.80
2018-08-30T08:54:57.050Z,101734.02
2018-08-30T08:56:01.291Z,101733.70
2018-08-30T08:57:05.801Z,101739.13
2018-08-30T08:58:10.107Z,101741.02
2018-08-30T08:59:14.441Z,101737.02
2018-08-30T09:00:18.586Z,101741.91
2018-08-30T09:01:22.755Z,101741.77
2018-08-30T09:02:26.905Z,101736.73
2018-08-30T09:03:31.120Z,101738.41
2018-08-30T09:04:35.408Z,101740.25
2018-08-30T09:05:40.328Z,101738.91
2018-08-30T09:06:44.535Z,101738.09
2018-08-30T09:07:49.083Z,101738.91
2018-08-30T09:08:53.250Z,101737.91
2018-08-30T09:09:58.260Z,101742.98
2018-08-30T09:11:02.575Z,101739.66
2018-08-30T09:12:06.767Z,101743.70
2018-08-30T09:13:10.982Z,101740.44
2018-08-30T09:14:15.271Z,101742.13
2018-08-30T09:15:19.462Z,101743.16
2018-08-30T09:16:23.655Z,101736.47
2018-08-30T09:17:27.795Z,101746.92
2018-08-30T09:18:32.128Z,101741.04
2018-08-30T09:19:36.259Z,101740.54
2018-08-30T09:20:40.490Z,101741.18
2018-08-30T09:21:44.642Z,101737.31
2018-08-30T09:22:48.790Z,101741.50
2018-08-30T09:23:53.002Z,101739.80
2018-08-30T09:24:57.138Z,101738.13
2018-08-30T09:26:01.315Z,101740.47
2018-08-30T09:27:05.532Z,101737.10
2018-08-30T09:28:09.799Z,101740.30
2018-08-30T09:29:13.966Z,101739.44
2018-08-30T09:30:18.100Z,101735.76
2018-08-30T09:31:22.552Z,101736.25
2018-08-30T09:32:26.902Z,101737.74
2018-08-30T09:33:31.073Z,101736.08
2018-08-30T09:34:35.378Z,101735.37
2018-08-30T09:35:39.628Z,101739.91
2018-08-30T09:36:43.813Z,101743.45
2018-08-30T09:37:47.951Z,101743.80
2018-08-30T09:38:52.167Z,101738.09
2018-08-30T09:39:56.307Z,101741.46
2018-08-30T09:41:00.633Z,101740.61
2018-08-30T09:42:04.941Z,101742.81
2018-08-30T09:43:09.311Z,101740.11
2018-08-30T09:44:13.515Z,101744.79
2018-08-30T09:45:17.684Z,101736.53
2018-08-30T09:46:21.861Z,101750.11
2018-08-30T09:47:26.051Z,101744.41
2018-08-30T09:48:30.396Z,101746.07
2018-08-30T09:49:34.575Z,101741.36
2018-08-30T09:50:38.715Z,101737.17
2018-08-30T09:51:42.904Z,101743.77
2018-08-30T09:52:47.128Z,101742.77
2018-08-30T09:53:51.484Z,101744.48
2018-08-30T09:54:55.614Z,101743.84
2018-08-30T09:55:59.785Z,101743.55
2018-08-30T09:57:04.122Z,101744.29
2018-08-30T09:58:08.583Z,101737.45
2018-08-30T09:59:13.226Z,101739.64
2018-08-30T10:00:22.880Z,101737.33
2018-08-30T10:01:32.351Z,101749.33
2018-08-30T10:02:56.043Z,101740.59
2018-08-30T10:04:00.319Z,101742.46
2018-08-30T10:05:04.494Z,101739.80
2018-08-30T10:06:08.686Z,101746.20
2018-08-30T10:07:13.506Z,101746.55
2018-08-30T10:08:17.666Z,101745.56
2018-08-30T10:09:21.906Z,101746.91
2018-08-30T10:10:26.466Z,101746.58
2018-08-30T10:11:30.620Z,101740.39
2018-08-30T10:12:34.940Z,101750.85
2018-08-30T10:13:39.113Z,101746.45
2018-08-30T10:14:43.659Z,101749.94
2018-08-30T10:15:47.867Z,101745.56
2018-08-30T10:16:52.068Z,101748.91
2018-08-30T10:17:56.214Z,101749.20
2018-08-30T10:19:00.379Z,101749.88
2018-08-30T10:20:04.684Z,101749.20
2018-08-30T10:21:08.826Z,101749.53
2018-08-30T10:22:13.062Z,101745.81
2018-08-30T10:23:17.300Z,101748.51
2018-08-30T10:24:21.496Z,101749.33
2018-08-30T10:25:25.743Z,101751.84
2018-08-30T10:26:29.868Z,101756.89
2018-08-30T10:27:34.018Z,101745.11
2018-08-30T10:28:38.164Z,101747.48
2018-08-30T10:29:42.323Z,101749.53
2018-08-30T10:30:46.519Z,101751.41
2018-08-30T10:31:50.723Z,101752.92
2018-08-30T10:32:54.922Z,101752.57
2018-08-30T10:33:59.085Z,101758.46
2018-08-30T10:35:04.539Z,101756.94
2018-08-30T10:36:08.763Z,101759.61
2018-08-30T10:37:12.907Z,101751.50
2018-08-30T10:38:17.071Z,101755.37
2018-08-30T10:39:21.395Z,101759.23
2018-08-30T10:40:25.595Z,101757.89
2018-08-30T10:41:29.810Z,101748.45
2018-08-30T10:42:34.007Z,101750.47
2018-08-30T10:43:38.236Z,101752.20
2018-08-30T10:44:43.671Z,101745.81
2018-08-30T10:45:47.839Z,101753.59
2018-08-30T10:46:52.140Z,101748.58
2018-08-30T10:47:56.274Z,101753.31
2018-08-30T10:49:00.464Z,101751.84
2018-08-30T10:50:04.680Z,101754.56
2018-08-30T10:51:08.848Z,101757.28
2018-08-30T10:52:13.283Z,101761.85
2018-08-30T10:53:17.502Z,101766.05
2018-08-30T10:54:21.702Z,101762.68
2018-08-30T10:55:25.860Z,101766.19
2018-08-30T10:56:30.206Z,101756.75
2018-08-30T10:57:34.496Z,101754.91
2018-08-30T10:58:38.915Z,101757.95
2018-08-30T10:59:43.349Z,101762.14
2018-08-30T11:00:48.468Z,101756.58
2018-08-30T11:01:54.169Z,101758.61
2018-08-30T11:02:59.393Z,101760.78
2018-08-30T11:04:04.531Z,101755.72
2018-08-30T11:05:09.371Z,101760.91
2018-08-30T11:06:13.634Z,101756.34
2018-08-30T11:07:18.119Z,101755.64
2018-08-30T11:08:22.367Z,101756.67
2018-08-30T11:09:26.687Z,101767.45
2018-08-30T11:10:31.133Z,101755.99
2018-08-30T11:11:35.372Z,101751.63
2018-08-30T11:12:39.652Z,101751.67
2018-08-30T11:13:45.215Z,101757.41
2018-08-30T11:14:50.873Z,101752.54
2018-08-30T11:15:55.537Z,101749.36
2018-08-30T11:16:59.790Z,101757.80
2018-08-30T11:18:04.362Z,101750.57
2018-08-30T11:19:08.683Z,101752.09
2018-08-30T11:20:12.847Z,101749.56
2018-08-30T11:21:17.075Z,101750.41
2018-08-30T11:22:21.244Z,101747.88
2018-08-30T11:23:25.488Z,101751.11
2018-08-30T11:24:29.934Z,101752.45
2018-08-30T11:25:34.362Z,101751.78
2018-08-30T11:26:38.619Z,101755.82
2018-08-30T11:27:42.740Z,101756.16
2018-08-30T11:28:48.444Z,101754.45
2018-08-30T11:29:55.246Z,101756.48
2018-08-30T11:31:00.373Z,101757.13
2018-08-30T11:32:04.648Z,101756.31
2018-08-30T11:33:09.979Z,101761.01
2018-08-30T11:34:14.157Z,101752.42
2018-08-30T11:35:20.050Z,101753.09
2018-08-30T11:36:24.997Z,101752.79
2018-08-30T11:37:30.366Z,101753.27
2018-08-30T11:38:34.935Z,101753.80
2018-08-30T11:39:39.134Z,101751.11
2018-08-30T11:40:43.376Z,101759.22
2018-08-30T11:41:47.836Z,101747.75
2018-08-30T11:42:51.883Z,101750.95
2018-08-30T11:43:56.054Z,101756.52
2018-08-30T11:45:00.240Z,101755.86
2018-08-30T11:46:04.444Z,101758.86
2018-08-30T11:47:08.580Z,101750.44
2018-08-30T11:48:12.717Z,101757.19
2018-08-30T11:49:16.874Z,101749.59
2018-08-30T11:50:21.060Z,101760.38
2018-08-30T11:51:26.197Z,101758.54
2018-08-30T11:52:30.396Z,101760.73
2018-08-30T11:53:34.558Z,101766.61
2018-08-30T11:54:38.751Z,101766.59
2018-08-30T11:55:42.892Z,101765.75
2018-08-30T11:56:53.612Z,101769.10
2018-08-30T11:57:57.821Z,101773.15
2018-08-30T11:59:04.297Z,101775.84
2018-08-30T12:00:10.460Z,101773.33
2018-08-30T12:01:15.372Z,101766.59
2018-08-30T12:02:19.608Z,101771.63
2018-08-30T12:03:24.220Z,101772.83
2018-08-30T12:04:28.771Z,101775.00
2018-08-30T12:05:33.441Z,101778.89
2018-08-30T12:06:37.799Z,101774.34
2018-08-30T12:07:42.663Z,101767.75
2018-08-30T12:08:46.876Z,101774.00
2018-08-30T12:09:51.066Z,101778.72
2018-08-30T12:10:55.446Z,101773.98
2018-08-30T12:12:01.001Z,101789.81
2018-08-30T12:13:05.424Z,101784.38
2018-08-30T12:14:09.578Z,101784.99
2018-08-30T12:15:13.784Z,101776.36